Time;durP1;ratioP1;P1;durP2;ratioP2;P2;SDS_P1;SDS_P2;PMS_P1;PMS_P2;Temp;Humidity;BMP_temperature;BMP_pressure;BME280_temperature;BME280_humidity;BME280_pressure;Samples;Min_cycle;Max_cycle;Signal;HPM_P1;HPM_P2
2021/03/02 00:02:20;;;;;;;28.75;16.08;;;4.90;86.00;;;;;;5036228;28;20082;-75
2021/03/02 00:04:46;;;;;;;28.45;16.30;;;4.90;86.00;;;;;;5052717;28;20032;-75
2021/03/02 00:07:15;;;;;;;27.42;15.20;;;4.90;86.10;;;;;;5052448;28;20039;-76
2021/03/02 00:09:42;;;;;;;29.25;15.88;;;4.90;86.20;;;;;;5052845;28;20444;-76
2021/03/02 00:12:08;;;;;;;26.73;14.88;;;4.90;86.10;;;;;;5053884;28;20067;-76
2021/03/02 00:14:37;;;;;;;26.95;15.40;;;4.80;86.10;;;;;;5052095;28;20029;-76
2021/03/02 00:17:08;;;;;;;27.67;15.10;;;4.80;86.10;;;;;;5053729;28;20093;-76
2021/03/02 00:19:44;;;;;;;28.48;15.70;;;4.80;86.20;;;;;;5053766;28;20112;-76
2021/03/02 00:22:48;;;;;;;29.27;15.65;;;4.80;86.40;;;;;;5053255;28;20021;-76
2021/03/02 00:25:14;;;;;;;31.00;14.65;;;4.80;86.60;;;;;;5052188;28;20481;-76
2021/03/02 00:27:41;;;;;;;26.50;15.27;;;4.80;86.60;;;;;;5052398;28;20032;-75
2021/03/02 00:30:07;;;;;;;27.55;15.27;;;4.80;86.70;;;;;;5053757;28;20029;-76
2021/03/02 00:32:33;;;;;;;26.45;14.82;;;4.80;86.80;;;;;;5044803;28;20098;-75
2021/03/02 00:34:59;;;;;;;25.15;14.00;;;4.80;86.80;;;;;;5034587;28;20370;-76
2021/03/02 00:37:25;;;;;;;30.35;16.08;;;4.80;87.00;;;;;;5052637;28;20020;-76
2021/03/02 00:39:50;;;;;;;33.60;15.20;;;4.80;87.20;;;;;;5035019;28;20412;-76
2021/03/02 00:42:16;;;;;;;27.42;15.35;;;4.80;87.30;;;;;;5051897;28;20037;-76
2021/03/02 00:44:41;;;;;;;34.15;16.92;;;4.70;87.40;;;;;;5034899;28;20037;-76
2021/03/02 00:47:07;;;;;;;31.45;16.23;;;4.70;87.60;;;;;;5035158;28;20025;-76
2021/03/02 00:49:34;;;;;;;30.85;16.45;;;4.70;87.70;;;;;;5052858;28;20036;-76
2021/03/02 00:51:59;;;;;;;33.20;17.75;;;4.80;87.80;;;;;;5049990;28;20028;-76
2021/03/02 00:54:25;;;;;;;30.58;16.67;;;4.80;87.80;;;;;;5050915;28;20025;-76
2021/03/02 00:56:51;;;;;;;30.17;16.33;;;4.70;87.80;;;;;;5051606;28;20025;-76
2021/03/02 00:59:16;;;;;;;29.83;16.77;;;4.70;87.90;;;;;;5051234;28;20082;-76
2021/03/02 01:01:42;;;;;;;29.80;17.40;;;4.70;87.90;;;;;;5035886;28;20037;-76
2021/03/02 01:04:08;;;;;;;30.30;16.23;;;4.70;88.00;;;;;;5052439;28;20059;-76
2021/03/02 01:06:34;;;;;;;34.65;18.55;;;4.60;88.10;;;;;;5052443;28;20033;-76
2021/03/02 01:08:59;;;;;;;29.27;16.40;;;4.60;88.20;;;;;;5048959;28;20039;-76
2021/03/02 01:11:25;;;;;;;29.25;16.60;;;4.50;88.30;;;;;;5055970;28;20025;-79
2021/03/02 01:13:51;;;;;;;31.08;17.25;;;4.50;88.40;;;;;;5019670;28;20033;-80
2021/03/02 01:16:17;;;;;;;29.70;16.63;;;4.50;88.50;;;;;;5052475;28;20025;-79
2021/03/02 01:18:43;;;;;;;33.22;18.27;;;4.50;88.40;;;;;;5052020;28;20036;-79
2021/03/02 01:21:08;;;;;;;32.50;17.23;;;4.50;88.40;;;;;;5053118;28;20394;-79
2021/03/02 01:23:34;;;;;;;32.25;17.83;;;4.50;88.50;;;;;;5054451;28;20374;-80
2021/03/02 01:26:00;;;;;;;28.30;16.73;;;4.50;88.40;;;;;;5053157;28;20036;-80
2021/03/02 01:28:25;;;;;;;31.27;18.45;;;4.60;88.30;;;;;;5053654;28;20061;-79
2021/03/02 01:30:51;;;;;;;32.17;20.15;;;4.60;88.20;;;;;;5028093;28;20032;-79
2021/03/02 01:33:17;;;;;;;30.92;19.00;;;4.50;88.10;;;;;;5051894;28;20059;-79
2021/03/02 01:35:42;;;;;;;33.30;21.00;;;4.50;88.10;;;;;;5053500;28;20067;-80
2021/03/02 01:38:08;;;;;;;40.80;23.70;;;4.50;88.10;;;;;;5035649;28;20031;-79
2021/03/02 01:40:33;;;;;;;42.95;24.08;;;4.50;88.10;;;;;;5052382;28;20462;-79
2021/03/02 01:42:59;;;;;;;42.00;23.95;;;4.50;88.70;;;;;;5051945;28;20033;-79
2021/03/02 01:45:25;;;;;;;38.35;24.38;;;4.50;88.20;;;;;;5035501;28;20028;-79
2021/03/02 01:47:52;;;;;;;47.38;27.88;;;4.50;88.30;;;;;;5052927;28;20157;-79
2021/03/02 01:50:20;;;;;;;40.13;25.67;;;4.40;88.30;;;;;;5053379;28;20025;-79
2021/03/02 01:52:46;;;;;;;41.58;25.80;;;4.40;88.60;;;;;;5051842;28;20441;-80
2021/03/02 01:55:15;;;;;;;49.13;30.25;;;4.40;88.70;;;;;;5035550;28;20025;-79
2021/03/02 01:57:40;;;;;;;44.47;27.50;;;4.40;88.80;;;;;;5035383;28;20478;-79
2021/03/02 02:00:21;;;;;;;44.72;26.98;;;4.40;88.80;;;;;;5053182;28;20029;-80
2021/03/02 02:03:05;;;;;;;44.72;26.52;;;4.40;88.90;;;;;;5053172;28;20024;-79
2021/03/02 02:05:40;;;;;;;41.47;26.20;;;4.40;88.80;;;;;;5051704;28;20116;-80
2021/03/02 02:08:07;;;;;;;45.80;26.50;;;4.40;88.70;;;;;;5053202;28;20393;-80
2021/03/02 02:10:49;;;;;;;46.70;28.23;;;4.40;88.60;;;;;;5052811;28;20037;-79
2021/03/02 02:13:30;;;;;;;38.78;25.23;;;4.30;88.60;;;;;;5052730;28;20600;-80
2021/03/02 02:15:57;;;;;;;37.90;24.58;;;4.30;88.50;;;;;;5051680;28;20116;-79
2021/03/02 02:18:31;;;;;;;39.13;25.13;;;4.30;88.50;;;;;;5052987;28;20070;-79
2021/03/02 02:21:11;;;;;;;37.83;24.35;;;4.30;88.60;;;;;;5051691;28;20021;-79
2021/03/02 02:23:59;;;;;;;34.42;22.58;;;4.30;88.60;;;;;;5051660;28;20116;-79
2021/03/02 02:26:36;;;;;;;36.25;23.67;;;4.20;88.60;;;;;;5043658;28;20082;-79
2021/03/02 02:29:03;;;;;;;36.97;23.38;;;4.20;88.70;;;;;;5052742;28;20021;-79
2021/03/02 02:31:30;;;;;;;42.33;24.25;;;4.20;88.70;;;;;;5052849;28;20082;-80
2021/03/02 02:33:56;;;;;;;35.45;22.85;;;4.20;88.80;;;;;;5051131;28;20059;-79
2021/03/02 02:36:23;;;;;;;37.33;23.17;;;4.10;89.50;;;;;;5051906;28;20430;-80
2021/03/02 02:38:56;;;;;;;38.45;23.30;;;4.10;88.90;;;;;;5056366;28;20081;-81
2021/03/02 02:41:24;;;;;;;37.40;21.30;;;4.10;89.00;;;;;;5055465;28;20033;-81
2021/03/02 02:43:52;;;;;;;35.53;20.30;;;4.10;88.90;;;;;;5055034;28;20025;-80
2021/03/02 02:46:19;;;;;;;37.90;20.63;;;4.10;89.00;;;;;;5056434;28;20021;-81
2021/03/02 02:48:47;;;;;;;32.78;19.23;;;4.10;88.90;;;;;;5055238;28;20029;-81
2021/03/02 02:51:13;;;;;;;36.35;21.35;;;4.10;88.90;;;;;;5056352;28;20057;-81
2021/03/02 02:53:40;;;;;;;35.25;20.88;;;4.10;88.90;;;;;;5054656;28;20056;-80
2021/03/02 02:56:06;;;;;;;35.70;20.70;;;4.10;89.00;;;;;;5056346;28;20032;-81
2021/03/02 02:59:08;;;;;;;30.02;19.17;;;4.10;89.10;;;;;;5054667;28;20437;-80
2021/03/02 03:01:38;;;;;;;32.67;18.80;;;4.10;89.10;;;;;;5054975;28;20032;-81
2021/03/02 03:04:08;;;;;;;32.72;18.20;;;4.10;89.00;;;;;;5056042;28;20078;-81
2021/03/02 03:06:39;;;;;;;32.05;17.83;;;4.00;89.00;;;;;;5056224;28;20067;-80
2021/03/02 03:09:06;;;;;;;31.17;18.15;;;4.10;89.00;;;;;;5053563;28;20106;-80
2021/03/02 03:11:39;;;;;;;29.85;18.75;;;4.10;89.00;;;;;;5055166;28;20152;-81
2021/03/02 03:14:10;;;;;;;30.15;18.25;;;4.00;89.00;;;;;;5055094;28;20040;-81
2021/03/02 03:16:37;;;;;;;31.60;19.13;;;4.00;89.70;;;;;;5056724;28;20466;-80
2021/03/02 03:19:04;;;;;;;36.92;20.77;;;4.00;89.10;;;;;;5056180;28;20028;-81
2021/03/02 03:21:32;;;;;;;34.05;19.00;;;3.90;89.20;;;;;;5055886;28;20029;-81
2021/03/02 03:23:59;;;;;;;35.45;18.48;;;3.90;89.40;;;;;;5054519;28;20047;-81
2021/03/02 03:26:29;;;;;;;29.45;17.27;;;3.90;89.60;;;;;;5037606;28;20464;-80
2021/03/02 03:28:56;;;;;;;30.42;17.77;;;3.80;90.00;;;;;;5054480;28;20025;-80
2021/03/02 03:31:21;;;;;;;31.92;18.27;;;3.80;89.80;;;;;;5037904;28;20083;-81
2021/03/02 03:33:50;;;;;;;29.10;17.00;;;3.80;89.90;;;;;;5037678;28;20049;-80
2021/03/02 03:36:16;;;;;;;35.08;19.17;;;3.80;89.90;;;;;;5054507;28;20127;-81
2021/03/02 03:38:45;;;;;;;31.98;17.40;;;3.80;89.80;;;;;;5055715;28;20497;-81
2021/03/02 03:41:14;;;;;;;33.08;17.48;;;3.80;89.60;;;;;;5055408;28;20051;-81
2021/03/02 03:43:40;;;;;;;29.85;16.92;;;3.80;89.60;;;;;;5054176;28;20029;-80
2021/03/02 03:46:06;;;;;;;28.48;16.83;;;3.80;89.60;;;;;;5055552;28;20071;-80
2021/03/02 03:48:32;;;;;;;31.05;17.80;;;3.80;89.50;;;;;;5036354;28;20037;-81
2021/03/02 03:50:58;;;;;;;26.17;15.48;;;3.80;89.50;;;;;;5055433;28;20033;-80
2021/03/02 03:53:27;;;;;;;28.17;15.77;;;3.80;89.60;;;;;;5037531;28;20040;-81
2021/03/02 03:55:53;;;;;;;30.75;17.17;;;3.80;89.60;;;;;;5055690;28;20013;-80
2021/03/02 03:58:22;;;;;;;28.00;15.52;;;3.80;89.60;;;;;;5053798;28;20508;-81
2021/03/02 04:00:51;;;;;;;;;;;3.80;89.60;;;;;;5054359;28;20429;-80
2021/03/02 04:03:19;;;;;;;27.92;15.77;;;3.80;89.40;;;;;;5053696;28;19965;-81
2021/03/02 04:05:46;;;;;;;27.13;15.32;;;3.70;89.50;;;;;;5053879;28;20039;-80
2021/03/02 04:08:13;;;;;;;28.73;15.85;;;3.70;89.60;;;;;;5054896;28;20028;-80
2021/03/02 04:10:41;;;;;;;27.90;16.08;;;3.70;89.70;;;;;;5055401;28;20028;-81
2021/03/02 04:13:14;;;;;;;28.48;16.00;;;3.70;89.70;;;;;;5053677;28;20499;-81
2021/03/02 04:15:41;;;;;;;32.28;16.30;;;3.70;89.90;;;;;;5054923;28;20068;-80
2021/03/02 04:18:12;;;;;;;28.92;15.80;;;3.60;89.80;;;;;;5054405;28;20474;-81
2021/03/02 04:20:38;;;;;;;29.63;16.13;;;3.60;89.90;;;;;;5038771;28;20051;-80
2021/03/02 04:23:04;;;;;;;27.85;15.88;;;3.60;89.90;;;;;;5054772;28;20033;-81
2021/03/02 04:25:31;;;;;;;28.90;15.27;;;3.60;89.90;;;;;;5054994;28;20065;-81
2021/03/02 04:27:57;;;;;;;31.08;16.40;;;3.50;89.90;;;;;;5053051;28;20029;-81
2021/03/02 04:30:23;;;;;;;28.10;15.93;;;3.50;90.00;;;;;;5053084;28;20440;-81
2021/03/02 04:32:49;;;;;;;29.05;15.70;;;3.50;90.00;;;;;;5035021;28;20053;-81
2021/03/02 04:35:15;;;;;;;25.38;15.65;;;3.50;89.90;;;;;;5035923;28;20460;-81
2021/03/02 04:37:40;;;;;;;29.20;16.08;;;3.50;89.90;;;;;;5052252;28;20033;-81
2021/03/02 04:40:07;;;;;;;29.52;15.23;;;3.40;89.80;;;;;;5052460;28;20036;-81
2021/03/02 04:42:32;;;;;;;27.42;16.13;;;3.40;89.90;;;;;;5052982;28;20036;-81
2021/03/02 04:44:58;;;;;;;26.45;16.00;;;3.40;89.90;;;;;;5036466;28;20087;-81
2021/03/02 04:47:24;;;;;;;30.85;16.10;;;3.40;89.80;;;;;;5053735;28;20071;-80
2021/03/02 04:49:50;;;;;;;32.35;16.67;;;3.40;89.90;;;;;;5035848;28;20032;-80
2021/03/02 04:52:19;;;;;;;34.65;17.10;;;3.40;90.00;;;;;;5053692;28;20469;-80
2021/03/02 04:54:44;;;;;;;31.90;16.92;;;3.40;90.00;;;;;;5036560;28;20032;-81
2021/03/02 04:57:10;;;;;;;31.17;15.60;;;3.30;89.90;;;;;;5052872;28;20029;-80
2021/03/02 04:59:36;;;;;;;32.30;16.95;;;3.30;90.00;;;;;;5053862;28;20032;-81
2021/03/02 05:02:01;;;;;;;33.58;17.60;;;3.30;90.00;;;;;;5052427;28;20029;-80
2021/03/02 05:04:27;;;;;;;31.83;17.30;;;3.30;90.10;;;;;;5036283;28;20033;-81
2021/03/02 05:06:53;;;;;;;27.73;15.77;;;3.30;90.00;;;;;;5052320;28;20029;-81
2021/03/02 05:09:18;;;;;;;29.17;15.95;;;3.30;90.10;;;;;;5052690;28;20116;-80
2021/03/02 05:11:44;;;;;;;31.60;16.58;;;3.30;90.10;;;;;;5051806;28;20040;-76
2021/03/02 05:14:10;;;;;;;27.85;15.38;;;3.30;90.10;;;;;;5052117;28;20033;-75
2021/03/02 05:16:35;;;;;;;29.00;15.90;;;3.30;90.10;;;;;;5034768;28;20071;-75
2021/03/02 05:19:01;;;;;;;29.25;15.80;;;3.30;90.10;;;;;;5052866;28;20532;-76
2021/03/02 05:21:27;;;;;;;25.95;14.93;;;3.30;90.00;;;;;;5034751;28;20057;-76
2021/03/02 05:23:52;;;;;;;28.27;15.82;;;3.30;90.00;;;;;;5052386;28;20036;-75
2021/03/02 05:26:21;;;;;;;26.55;15.52;;;3.30;89.90;;;;;;5035280;28;20037;-76
2021/03/02 05:28:50;;;;;;;27.08;15.27;;;3.30;89.90;;;;;;5020257;28;20115;-76
2021/03/02 05:31:16;;;;;;;26.25;15.55;;;3.30;89.80;;;;;;5051735;28;20052;-76
2021/03/02 05:33:42;;;;;;;26.92;15.25;;;3.30;89.80;;;;;;5052027;28;20071;-73
2021/03/02 05:36:08;;;;;;;26.40;15.30;;;3.30;89.80;;;;;;5051978;28;20057;-75
2021/03/02 05:38:35;;;;;;;26.83;14.93;;;3.20;89.70;;;;;;5052334;28;20025;-74
2021/03/02 05:41:02;;;;;;;27.35;15.77;;;3.30;89.80;;;;;;5034425;28;20127;-75
2021/03/02 05:43:28;;;;;;;30.85;16.25;;;3.30;89.80;;;;;;5034737;28;20043;-75
2021/03/02 05:45:53;;;;;;;30.27;15.43;;;3.30;89.80;;;;;;5035138;28;20037;-79
2021/03/02 05:48:19;;;;;;;27.50;15.25;;;3.30;89.80;;;;;;5052011;28;20044;-80
2021/03/02 05:50:45;;;;;;;25.73;14.48;;;3.30;89.80;;;;;;5035719;28;20025;-80
2021/03/02 05:53:11;;;;;;;27.50;15.55;;;3.30;89.80;;;;;;5051942;28;20032;-79
2021/03/02 05:55:38;;;;;;;26.25;15.00;;;3.30;89.70;;;;;;5034932;28;20029;-78
2021/03/02 05:58:04;;;;;;;24.65;14.20;;;3.30;89.80;;;;;;5051285;28;20025;-78
2021/03/02 06:00:33;;;;;;;28.75;15.20;;;3.30;89.70;;;;;;5052396;28;20029;-78
2021/03/02 06:02:59;;;;;;;;;;;3.20;89.50;;;;;;5052938;28;20053;-78
2021/03/02 06:05:25;;;;;;;24.83;14.13;;;3.20;89.50;;;;;;5051557;28;19951;-78
2021/03/02 06:07:51;;;;;;;25.48;15.50;;;3.20;90.10;;;;;;5052797;28;20029;-78
2021/03/02 06:10:17;;;;;;;26.00;15.45;;;3.10;89.50;;;;;;5051777;28;20408;-79
2021/03/02 06:12:50;;;;;;;25.33;14.10;;;3.10;89.70;;;;;;5055487;28;20438;-78
2021/03/02 06:15:18;;;;;;;26.90;15.57;;;3.10;89.80;;;;;;5055545;28;20070;-78
2021/03/02 06:17:44;;;;;;;26.95;14.55;;;3.10;89.60;;;;;;5055860;28;20107;-79
2021/03/02 06:20:22;;;;;;;22.52;13.77;;;3.10;89.60;;;;;;5055672;28;20487;-79
2021/03/02 06:22:48;;;;;;;23.30;13.90;;;3.00;89.60;;;;;;5055420;28;20549;-79
2021/03/02 06:25:33;;;;;;;25.13;14.52;;;3.00;89.40;;;;;;5054860;28;20074;-79
2021/03/02 06:27:59;;;;;;;24.15;13.77;;;3.00;89.60;;;;;;5056600;28;20028;-78
2021/03/02 06:30:25;;;;;;;27.58;15.13;;;3.00;89.40;;;;;;5056369;28;20032;-78
2021/03/02 06:32:56;;;;;;;24.92;13.35;;;3.00;89.40;;;;;;5038613;28;20087;-78
2021/03/02 06:35:42;;;;;;;26.15;14.13;;;3.00;89.40;;;;;;5038608;28;20029;-78
2021/03/02 06:38:07;;;;;;;26.23;14.32;;;3.00;89.50;;;;;;5035287;28;20112;-78
2021/03/02 06:40:46;;;;;;;26.42;14.35;;;3.00;89.40;;;;;;5044492;28;20109;-78
2021/03/02 06:43:34;;;;;;;24.45;13.85;;;3.00;89.50;;;;;;5054894;28;20033;-78
2021/03/02 06:46:01;;;;;;;26.15;13.95;;;3.00;89.50;;;;;;5055751;28;20036;-78
2021/03/02 06:48:30;;;;;;;24.55;13.15;;;3.00;89.50;;;;;;5054661;28;20028;-79
2021/03/02 06:50:55;;;;;;;27.30;13.93;;;3.10;89.50;;;;;;5054401;28;20055;-79
2021/03/02 06:53:21;;;;;;;29.15;14.43;;;3.10;89.40;;;;;;5057494;28;20060;-79
2021/03/02 06:55:46;;;;;;;28.27;14.85;;;3.10;89.40;;;;;;5067519;28;20477;-79
2021/03/02 06:58:14;;;;;;;26.20;14.52;;;3.20;89.30;;;;;;5053299;28;20028;-78
2021/03/02 07:00:52;;;;;;;28.17;15.75;;;3.20;89.30;;;;;;5046738;28;20074;-79
2021/03/02 07:03:48;;;;;;;24.85;13.90;;;3.30;89.40;;;;;;5055274;28;20381;-79
2021/03/02 07:06:14;;;;;;;26.50;14.23;;;3.20;89.30;;;;;;5052691;28;20037;-79
2021/03/02 07:08:39;;;;;;;27.35;14.57;;;3.30;89.30;;;;;;5053790;28;20039;-79
2021/03/02 07:11:05;;;;;;;23.85;14.18;;;3.30;89.30;;;;;;5036880;28;20421;-79
2021/03/02 07:13:33;;;;;;;23.90;13.85;;;3.30;89.30;;;;;;5021063;28;20028;-75
2021/03/02 07:15:59;;;;;;;24.77;13.93;;;3.40;89.70;;;;;;5054427;28;20082;-75
2021/03/02 07:18:28;;;;;;;23.35;12.55;;;3.40;89.30;;;;;;5054343;28;20670;-75
2021/03/02 07:21:00;;;;;;;24.95;13.35;;;3.40;89.30;;;;;;5054494;28;20025;-75
2021/03/02 07:23:29;;;;;;;22.48;13.07;;;3.50;89.40;;;;;;5055377;28;20037;-75
2021/03/02 07:25:56;;;;;;;27.45;14.88;;;3.50;89.40;;;;;;5054240;28;20028;-75
2021/03/02 07:28:26;;;;;;;23.15;13.88;;;3.60;89.40;;;;;;5054875;28;20108;-75
2021/03/02 07:30:54;;;;;;;20.50;12.10;;;3.70;89.40;;;;;;5054837;28;20369;-75
2021/03/02 07:33:20;;;;;;;24.25;12.80;;;3.80;89.20;;;;;;5054529;28;20065;-75
2021/03/02 07:35:47;;;;;;;20.70;12.18;;;3.90;89.10;;;;;;5036304;28;20029;-75
2021/03/02 07:38:18;;;;;;;18.55;11.65;;;4.00;89.10;;;;;;5052964;28;20469;-75
2021/03/02 07:40:53;;;;;;;19.30;11.23;;;4.20;89.00;;;;;;5070032;28;20120;-75
2021/03/02 07:43:33;;;;;;;17.50;11.35;;;4.30;88.90;;;;;;5054431;28;20032;-75
2021/03/02 07:46:01;;;;;;;16.73;10.75;;;4.50;88.80;;;;;;5033341;28;20044;-75
2021/03/02 07:48:38;;;;;;;14.05;9.52;;;4.70;88.60;;;;;;5033735;28;20107;-74
2021/03/02 07:51:16;;;;;;;16.70;9.95;;;4.80;88.40;;;;;;5055189;28;20112;-75
2021/03/02 07:53:43;;;;;;;16.42;10.10;;;5.00;88.40;;;;;;5055153;28;20029;-76
2021/03/02 07:56:16;;;;;;;15.95;9.63;;;5.20;88.10;;;;;;5053955;28;20032;-75
2021/03/02 07:59:05;;;;;;;18.88;9.75;;;5.30;88.00;;;;;;5037566;28;20087;-75
2021/03/02 08:04:15;;;;;;;17.02;9.18;;;5.70;87.30;;;;;;5053685;28;20080;-75
2021/03/02 08:06:50;;;;;;;19.17;10.90;;;5.90;87.00;;;;;;5053215;28;20386;-75
2021/03/02 08:09:25;;;;;;;19.73;9.65;;;6.00;86.60;;;;;;5053610;28;20036;-75
2021/03/02 08:11:51;;;;;;;14.32;8.73;;;6.20;86.30;;;;;;5054755;28;20456;-75
2021/03/02 08:14:17;;;;;;;12.05;7.68;;;6.30;85.90;;;;;;5054836;28;20039;-75
2021/03/02 08:16:56;;;;;;;14.63;8.52;;;6.50;85.60;;;;;;5054681;28;20100;-75
2021/03/02 08:19:40;;;;;;;11.88;7.60;;;6.70;85.30;;;;;;5054509;28;20045;-79
2021/03/02 08:22:22;;;;;;;14.02;7.85;;;6.80;84.90;;;;;;5054227;28;20063;-79
2021/03/02 08:24:54;;;;;;;14.70;7.95;;;6.90;84.50;;;;;;5053339;28;20055;-79
2021/03/02 08:27:40;;;;;;;11.13;7.40;;;7.10;84.20;;;;;;5054273;28;20049;-76
2021/03/02 08:30:08;;;;;;;11.57;7.35;;;7.20;83.80;;;;;;5036631;28;20082;-75
2021/03/02 08:32:35;;;;;;;11.47;7.73;;;7.30;83.40;;;;;;5052864;28;20047;-75
2021/03/02 08:35:12;;;;;;;12.25;7.50;;;7.50;83.00;;;;;;5052029;28;20055;-76
2021/03/02 08:37:41;;;;;;;10.70;7.40;;;7.60;82.50;;;;;;5051806;28;20037;-75
2021/03/02 08:40:09;;;;;;;16.30;7.10;;;7.60;82.10;;;;;;5052048;28;20370;-75
2021/03/02 08:42:36;;;;;;;12.77;7.50;;;7.80;82.00;;;;;;5035703;28;20029;-76
2021/03/02 08:45:09;;;;;;;14.85;7.68;;;7.90;81.40;;;;;;5045919;28;20086;-76
2021/03/02 08:56:35;;;;;;;11.63;6.80;;;8.40;79.80;;;;;;5049812;28;20022;-76
2021/03/02 08:59:01;;;;;;;11.18;8.13;;;8.50;79.50;;;;;;5036182;28;20040;-77
2021/03/02 09:01:28;;;;;;;12.68;7.30;;;8.60;78.60;;;;;;5052840;28;20481;-76
2021/03/02 09:04:07;;;;;;;10.82;7.45;;;8.70;78.40;;;;;;5048653;28;20049;-77
2021/03/02 09:06:34;;;;;;;16.65;7.60;;;8.80;77.80;;;;;;5034116;28;20036;-76
2021/03/02 09:09:05;;;;;;;12.45;7.40;;;8.90;77.70;;;;;;5033902;28;20026;-76
2021/03/02 09:11:37;;;;;;;11.02;7.22;;;9.00;77.40;;;;;;5042625;28;20470;-76
2021/03/02 09:14:30;;;;;;;12.88;7.18;;;9.20;77.30;;;;;;5052306;28;20025;-76
2021/03/02 09:16:59;;;;;;;10.45;7.03;;;9.30;77.00;;;;;;5052452;28;20024;-76
2021/03/02 09:19:29;;;;;;;12.23;6.75;;;9.40;76.80;;;;;;5052564;28;20025;-76
2021/03/02 09:22:13;;;;;;;10.13;6.47;;;9.50;76.40;;;;;;5052093;28;20063;-76
2021/03/02 09:24:56;;;;;;;11.50;6.45;;;9.70;75.80;;;;;;5053619;28;20070;-76
2021/03/02 09:27:29;;;;;;;10.13;6.75;;;9.70;75.60;;;;;;5052270;28;20029;-76
2021/03/02 09:29:55;;;;;;;11.80;7.22;;;9.80;75.30;;;;;;5053048;28;20373;-76
2021/03/02 09:32:31;;;;;;;10.98;7.03;;;9.90;75.00;;;;;;5052218;28;20037;-76
2021/03/02 09:35:07;;;;;;;10.68;7.28;;;10.00;74.30;;;;;;5051999;28;20116;-76
2021/03/02 09:37:36;;;;;;;13.95;7.75;;;10.20;74.80;;;;;;5052066;28;20049;-76
2021/03/02 09:40:09;;;;;;;13.55;7.10;;;10.30;73.40;;;;;;5053129;28;20029;-79
2021/03/02 09:42:36;;;;;;;12.98;7.00;;;10.40;73.10;;;;;;5051923;28;20085;-79
2021/03/02 09:45:13;;;;;;;9.43;6.53;;;10.50;72.90;;;;;;5053427;28;20021;-80
2021/03/02 09:47:40;;;;;;;13.27;7.10;;;10.60;72.30;;;;;;5052613;28;20033;-79
2021/03/02 09:50:10;;;;;;;11.73;7.22;;;10.70;71.80;;;;;;5035275;28;20155;-79
2021/03/02 09:52:58;;;;;;;13.40;7.32;;;10.80;70.90;;;;;;5051601;28;20036;-79
2021/03/02 09:55:26;;;;;;;10.87;6.90;;;10.90;70.80;;;;;;5052291;28;20028;-79
2021/03/02 09:58:16;;;;;;;12.10;7.65;;;11.00;70.80;;;;;;5053031;28;20099;-79
2021/03/02 10:00:44;;;;;;;13.52;6.88;;;11.10;70.40;;;;;;5052025;28;20056;-79
2021/03/02 10:03:17;;;;;;;11.13;6.50;;;11.20;69.80;;;;;;5052977;28;20056;-79
2021/03/02 10:05:44;;;;;;;11.23;7.32;;;11.30;69.30;;;;;;5085232;28;20037;-79
2021/03/02 10:08:19;;;;;;;12.25;7.10;;;11.40;69.20;;;;;;5051839;28;20040;-79
2021/03/02 10:10:45;;;;;;;14.82;6.97;;;11.50;68.90;;;;;;5053079;28;20033;-79
2021/03/02 10:13:10;;;;;;;11.80;6.95;;;11.60;68.80;;;;;;5052758;28;20032;-79
2021/03/02 10:15:36;;;;;;;13.38;6.97;;;11.70;68.70;;;;;;5051614;28;20106;-79
2021/03/02 10:18:25;;;;;;;10.93;7.25;;;11.80;68.40;;;;;;5018804;28;20024;-79
2021/03/02 10:21:08;;;;;;;11.70;6.70;;;12.00;68.00;;;;;;5051723;28;20054;-80
2021/03/02 10:23:40;;;;;;;11.10;6.80;;;12.10;67.60;;;;;;5052280;28;20040;-80
2021/03/02 10:26:05;;;;;;;12.25;7.85;;;12.20;67.50;;;;;;5052673;28;20029;-80
2021/03/02 10:28:32;;;;;;;13.82;7.47;;;12.30;66.90;;;;;;5035134;28;20068;-79
2021/03/02 10:30:59;;;;;;;9.98;7.10;;;12.30;66.70;;;;;;5051707;28;20091;-79
2021/03/02 10:33:25;;;;;;;12.30;7.80;;;12.40;66.60;;;;;;5051357;28;20045;-81
2021/03/02 10:35:50;;;;;;;10.50;7.00;;;12.50;66.00;;;;;;5052627;28;20025;-81
2021/03/02 10:38:16;;;;;;;13.10;7.50;;;12.60;66.00;;;;;;5051786;28;20025;-80
2021/03/02 10:40:42;;;;;;;12.60;8.13;;;12.70;65.70;;;;;;5035124;28;20060;-81
2021/03/02 10:43:07;;;;;;;12.20;7.60;;;12.70;64.60;;;;;;5051674;28;20029;-80
2021/03/02 10:45:33;;;;;;;13.13;8.23;;;12.80;64.70;;;;;;5034991;28;20055;-80
2021/03/02 10:47:59;;;;;;;11.85;8.15;;;12.90;64.30;;;;;;5052384;28;20037;-80
2021/03/02 10:50:24;;;;;;;12.80;7.57;;;13.00;64.20;;;;;;5051672;28;20385;-80
2021/03/02 10:52:50;;;;;;;12.88;7.78;;;13.10;63.80;;;;;;5034904;28;20033;-81
2021/03/02 10:55:16;;;;;;;13.40;7.88;;;13.20;63.80;;;;;;5066562;28;20037;-80
2021/03/02 10:57:41;;;;;;;13.90;7.35;;;13.30;63.00;;;;;;5056144;28;20025;-80
2021/03/02 11:00:07;;;;;;;13.23;8.10;;;13.40;62.80;;;;;;5092345;28;20087;-80
2021/03/02 11:02:33;;;;;;;13.05;8.32;;;13.50;62.10;;;;;;5074226;28;20028;-81
2021/03/02 11:04:58;;;;;;;13.15;7.90;;;13.50;61.80;;;;;;5056064;28;20029;-79
2021/03/02 11:07:24;;;;;;;14.35;8.18;;;13.60;62.80;;;;;;5038619;28;20025;-79
2021/03/02 11:09:50;;;;;;;15.30;8.18;;;13.70;61.10;;;;;;5055372;28;20041;-78
2021/03/02 11:12:15;;;;;;;14.35;8.70;;;13.80;60.90;;;;;;5054949;28;20033;-78
2021/03/02 11:14:41;;;;;;;13.43;8.23;;;13.90;60.30;;;;;;5056435;28;20036;-78
2021/03/02 11:17:07;;;;;;;15.15;8.93;;;14.00;60.30;;;;;;5055292;28;20025;-78
2021/03/02 11:19:33;;;;;;;13.52;8.23;;;14.20;60.00;;;;;;5054867;28;20021;-78
2021/03/02 11:21:58;;;;;;;18.70;8.82;;;14.20;59.80;;;;;;5038260;28;20086;-78
2021/03/02 11:24:24;;;;;;;16.52;9.13;;;14.30;59.00;;;;;;5038253;28;20478;-78
2021/03/02 11:26:50;;;;;;;15.73;9.10;;;14.40;58.30;;;;;;5055089;28;20380;-79
2021/03/02 11:29:17;;;;;;;16.83;8.50;;;14.50;58.60;;;;;;5054480;28;20029;-78
2021/03/02 11:31:42;;;;;;;17.40;8.90;;;14.50;58.00;;;;;;5054577;28;20501;-79
2021/03/02 11:34:08;;;;;;;15.88;8.43;;;14.60;58.00;;;;;;5037776;28;20057;-78
2021/03/02 11:36:34;;;;;;;12.38;7.93;;;14.70;57.90;;;;;;5054573;28;20025;-78
2021/03/02 11:38:59;;;;;;;13.57;8.15;;;14.80;57.80;;;;;;5055835;28;20033;-78
2021/03/02 11:41:25;;;;;;;14.05;8.68;;;15.00;57.20;;;;;;5054299;28;20036;-79
2021/03/02 11:43:50;;;;;;;16.80;9.00;;;15.10;57.10;;;;;;5054488;28;20052;-80
2021/03/02 11:46:16;;;;;;;22.50;10.15;;;15.20;56.70;;;;;;5051733;28;20031;-78
2021/03/02 11:48:42;;;;;;;18.98;9.07;;;15.30;56.40;;;;;;5066533;28;20402;-78
2021/03/02 11:51:07;;;;;;;15.77;8.90;;;15.40;56.30;;;;;;5054209;28;20037;-79
2021/03/02 11:53:33;;;;;;;17.83;10.20;;;15.50;56.00;;;;;;5055318;28;20040;-79
2021/03/02 11:55:59;;;;;;;16.83;10.05;;;15.60;55.40;;;;;;5053979;28;20558;-78
2021/03/02 11:58:24;;;;;;;14.43;9.10;;;15.60;54.20;;;;;;5037623;28;20616;-78
2021/03/02 12:00:50;;;;;;;13.77;8.85;;;15.60;55.00;;;;;;5037582;28;20032;-78
2021/03/02 12:03:16;;;;;;;14.00;8.52;;;15.70;55.00;;;;;;5054012;28;20449;-78
2021/03/02 12:05:41;;;;;;;14.25;8.23;;;15.80;55.70;;;;;;5054096;28;20029;-77
2021/03/02 12:08:07;;;;;;;13.40;8.38;;;15.90;55.00;;;;;;5037589;28;20036;-77
2021/03/02 12:10:33;;;;;;;17.67;9.85;;;16.00;54.90;;;;;;5036564;28;20029;-77
2021/03/02 12:12:58;;;;;;;15.32;9.65;;;16.20;53.90;;;;;;5055266;28;20031;-77
2021/03/02 12:15:24;;;;;;;19.15;10.18;;;16.20;53.90;;;;;;5020786;28;20375;-77
2021/03/02 12:17:49;;;;;;;15.52;9.73;;;16.30;53.60;;;;;;5053966;28;20082;-77
2021/03/02 12:20:15;;;;;;;16.35;9.07;;;16.30;53.20;;;;;;5037150;28;20456;-77
2021/03/02 12:22:41;;;;;;;14.70;8.70;;;16.40;53.40;;;;;;5037068;28;20033;-77
2021/03/02 12:25:07;;;;;;;12.55;8.82;;;16.40;53.30;;;;;;5037055;28;20029;-77
2021/03/02 12:27:33;;;;;;;14.57;9.13;;;16.50;52.70;;;;;;5053567;28;20199;-77
2021/03/02 12:29:59;;;;;;;16.88;9.05;;;16.60;53.00;;;;;;5036818;28;20541;-77
2021/03/02 12:32:25;;;;;;;17.48;10.23;;;16.70;52.40;;;;;;5053572;28;20083;-77
2021/03/02 12:34:50;;;;;;;15.13;9.65;;;16.70;51.80;;;;;;5036665;28;20045;-79
2021/03/02 12:37:16;;;;;;;15.27;9.80;;;16.80;51.70;;;;;;5054474;28;20107;-79
2021/03/02 12:39:42;;;;;;;13.85;9.52;;;16.70;51.80;;;;;;5052888;28;20083;-79
2021/03/02 12:42:08;;;;;;;18.30;9.93;;;16.80;51.40;;;;;;5038096;28;20043;-79
2021/03/02 12:44:33;;;;;;;17.52;9.38;;;16.90;51.20;;;;;;5036538;28;20029;-79
2021/03/02 12:46:59;;;;;;;15.43;9.52;;;17.00;51.20;;;;;;5053366;28;20656;-79
2021/03/02 12:49:25;;;;;;;16.67;9.38;;;17.10;51.20;;;;;;5036638;28;20047;-79
2021/03/02 12:51:50;;;;;;;14.68;9.48;;;17.20;51.20;;;;;;5052760;28;20033;-79
2021/03/02 12:54:16;;;;;;;18.17;9.43;;;17.30;50.40;;;;;;5054058;28;20024;-79
2021/03/02 12:56:42;;;;;;;16.35;9.88;;;17.40;50.70;;;;;;5054101;28;20095;-79
2021/03/02 12:59:08;;;;;;;14.95;9.32;;;17.40;50.00;;;;;;5052923;28;20025;-79